Terminal Aerodrome Forecast
Issued by NWS

Home | Current Version | Previous Version | Graphics & Text | Print | Product List | Glossary On
Versions: 1 2 3 4 5 6 7 8 9 10 11 12
000
FTUS45 KGGW 220527
TAFGDV
TAF
KGDV 220527Z 2206/2306 17006KT P6SM SKC
     FM221800 32010KT P6SM FEW150
     FM230300 36008KT P6SM FEW250=

USA.gov is the U.S. government's official web portal to all federal, state and local government web resources and services.